Weather observations for the past three days for
Aquadilla, Rafael Hernandez Airport
Metric (Imperial)
Date Time (ast) Wind (kph) Vis. (km) Weather Sky Cond. Temperature (ºC) Relative Humidity Wind Chill (°C) Heat Index (°C) Pressure Precipitation (cm)
Air Dwpt 6 hour altimeter (cm) sea level (mb) 1 hr 3 hr 6 hr
Max. Min.
10 11:50 E 31 16.09 Partly Cloudy SCT022 31 23 62% 35 76.3 0.0
10 10:50 E 33 16.09 Partly Cloudy and Breezy SCT023 31 23 62% 35 76.35 0.0
10 09:50 E 26 16.09 A Few Clouds FEW024 29 22 66% 32 76.38 0.0
10 08:50 E 26 G 33 16.09 A Few Clouds FEW021 28 22 70% 31 76.35 0.0
10 07:50 E 22 16.09 Fair CLR 27 22 74% 29 76.3 0.0
10 06:50 E 13 16.09 Fair CLR 25 21 79% 26 76.28 0.0
09 19:50 E 30 G 43 16.09 Fair CLR 27 22 74% 29 76.17 0.0
09 18:50 E 31 G 46 16.09 Fair CLR 27 22 74% 29 76.12 0.0
09 17:50 E 31 G 46 16.09 Fair CLR 28 22 70% 31 76.1 0.0
09 16:50 E 39 16.09 Fair and Breezy CLR 29 23 70% 33 76.07 0.0
09 15:50 E 37 G 44 16.09 Fair and Breezy CLR 29 22 66% 32 76.1 0.0
09 14:50 E 37 G 48 16.09 Fair and Breezy CLR 30 22 62% 33 76.1 0.0
09 13:50 E 35 G 44 16.09 Fair and Breezy CLR 30 23 66% 34 76.17 0.0
09 12:50 E 39 16.09 Fair and Breezy CLR 31 22 59% 35 76.23 0.0
09 11:50 E 35 16.09 Fair and Breezy CLR 31 22 59% 35 76.25 0.0
09 10:50 NE 31 16.09 Fair CLR 30 22 62% 33 76.28 0.0
09 09:50 E 28 G 35 16.09 Fair CLR 30 21 59% 33 76.28 0.0
09 08:50 E 24 16.09 Fair CLR 28 20 62% 30 76.28 0.0
09 07:50 E 19 16.09 Fair CLR 27 22 74% 29 76.23 0.0
09 06:50 SE 7 16.09 Fair CLR 24 21 83% 24 76.2 0.0
08 21:50 SE 7 16.09 Mostly Cloudy BKN021 BKN027 BKN043 26 23 84% 28 76.2 0.0
08 20:50 E 20 16.09 Partly Cloudy SCT022 SCT027 SCT047 27 23 79% 30 76.2 0.0
08 19:50 E 15 16.09 A Few Clouds FEW022 27 23 79% 30 76.12 0.0
08 18:50 E 22 16.09 A Few Clouds FEW020 28 23 74% 31 76.1 0.0
08 17:50 NE 24 16.09 A Few Clouds FEW021 29 23 70% 33 76.07 0.0
08 16:50 E 24 16.09 Partly Cloudy SCT022 29 23 70% 33 76.05 0.0
08 15:50 NE 24 16.09 Fair CLR 30 23 66% 34 76.05 0.0
08 14:50 NE 15 16.09 Partly Cloudy SCT041 30 22 62% 33 76.07 0.0
08 13:50 NE 19 16.09 Fair CLR 30 22 62% 33 76.1 0.0
08 12:50 NE 22 16.09 Partly Cloudy SCT023 30 22 62% 33 76.12 0.0
08 11:50 NE 22 16.09 Partly Cloudy SCT017 30 23 66% 34 76.17 0.0
08 10:50 NE 20 16.09 Fair CLR 30 22 62% 33 76.2 0.0
08 09:50 E 15 16.09 Fair CLR 29 20 58% 31 76.23 0.0
08 08:50 E 22 16.09 Fair CLR 28 21 66% 30 76.23 0.0
08 07:50 SE 15 16.09 Fair CLR 26 22 79% 28 76.2 0.0
08 06:50 SE 11 16.09 Fair CLR 24 21 83% 24 76.15 0.0
07 20:50 E 22 16.09 Mostly Cloudy BKN060 27 24 84% 30 76.23 0.0
07 19:50 E 19 16.09 A Few Clouds FEW055 27 24 84% 30 76.2 0.0
07 18:50 E 22 16.09 Overcast OVC048 28 24 79% 32 76.17 0.0
07 17:50 E 22 16.09 Partly Cloudy FEW020 SCT050 29 24 74% 34 76.12 0.0
07 16:50 E 24 16.09 A Few Clouds FEW020 29 24 74% 34 76.12 0.0
07 15:50 E 26 16.09 Overcast SCT021 OVC045 30 24 70% 35 76.15 0.0
07 14:50 NE 24 16.09 Partly Cloudy FEW020 SCT042 30 24 70% 35 76.15 0.0
07 13:50 E 20 16.09 Mostly Cloudy SCT022 BKN050 BKN060 30 24 70% 35 76.2 0.0
07 12:50 E 28 16.09 Blowing Dust FEW050 31 24 66% 37 76.28 0.0
Date Time (ast) Wind (kph) Vis. (km) Weather Sky Cond. Air Dwpt Max. Min. Relative Humidity Wind Chill (°C) Heat Index (°C) altimeter (cm) sea level (mb) 1 hr 3 hr 6 hr
6 hour
Temperature (ºC) Pressure Precipitation (cm)